I75

Osceola Municipal Airport

Osceola, Iowa, USA
METAR KI75 261335Z AUTO 27004KT 10SM CLR 10/05 A2997 RMK AO2 T00980045
Observed Flight Rules
Apr-26 @ 13:35 UTC (7 minutes ago) Visual Flight Rules
Wind Visibility Clouds
270° at 4 knots 10 miles
  • Clear skies
Temperatures Readings
Current 10°C / 50°F
Dewpoint 5°C / 41°F
Humidity 71%
Altimeter 29.97" Hg
Pressure 1015 hPa
Elevation 339
METAR KI75 261335Z AUTO 27004KT 10SM CLR 10/05 A2997 RMK AO2 T00980045
Observed Flight Rules
Apr-26 @ 13:35 UTC
(7 minutes ago)
VFR
Wind Visibility
270° at 4 knots 10 miles
Clouds
  • Clear skies
Temperature Dewpoint
10°C / 50°F 5°C / 41°F
Humidity Altimeter Pressure
71% 29.97" Hg 1015 hPa